Sv.knyaz Vladimir — UBKI2 — position and weather

sailwx.info

Track history (hours):
 
Tides and Currents Weather Stations Pressure Air Temp Water Temp Dewpoint Dewpoint Depression Visibility Wind Speed Wind Dir Waves Ship Positions

Sv.knyaz Vladimir

Last reported at 2017-Jan-19 21:21 UTC. Time now 2017-Jan-22 01:35 UTC.
Position N 45°33' E 036°49'.

Length 128 m; draft 3.2 m.

Type: Cargo ship. MMSI: 273350360.

Date/timePositionNaut miles runAvg speedWind from/ knotsBaromVisibWave heightAir tempDewpointWater temp
2017-Jan-19 21:21N 45°33' E 036°49'6 7.7
2017-Jan-19 20:34N 45°27' E 036°44'7 7.3
2017-Jan-19 19:34N 45°21' E 036°39'7 7.2
2017-Jan-19 18:33N 45°18' E 036°30'5 5.4
2017-Jan-19 17:33N 45°13' E 036°29'3 2.6
2017-Jan-19 16:33N 45°11' E 036°31'0 0.0
2017-Jan-19 15:30N 45°11' E 036°31'0 0.0
2017-Jan-19 14:34N 45°11' E 036°31'0 0.0
2017-Jan-19 13:33N 45°11' E 036°31'0 0.0
2017-Jan-19 12:34N 45°11' E 036°31'0 0.0
2017-Jan-19 11:31N 45°11' E 036°31'0 0.0
2017-Jan-19 10:33N 45°11' E 036°31'0 0.0
2017-Jan-19 09:33N 45°11' E 036°31'0 0.0
2017-Jan-19 08:34N 45°11' E 036°31'0 0.0
2017-Jan-19 07:28N 45°11' E 036°31'0 0.0
2017-Jan-19 06:34N 45°11' E 036°31'0 0.0
2017-Jan-19 05:33N 45°11' E 036°31'0 0.0
2017-Jan-19 04:32N 45°11' E 036°31'0 0.0
2017-Jan-19 03:31N 45°11' E 036°31'0 0.0
2017-Jan-19 02:33N 45°11' E 036°31'0 0.0
2017-Jan-19 01:32N 45°11' E 036°31'0 0.0
2017-Jan-19 00:09N 45°11' E 036°31'0 0.0
2017-Jan-18 19:05N 45°11' E 036°31'0 0.0
2017-Jan-18 18:28N 45°11' E 036°31'0 0.0
2017-Jan-18 17:33N 45°11' E 036°31'0 0.0
2017-Jan-18 16:30N 45°11' E 036°31'0 0.0
2017-Jan-18 15:33N 45°11' E 036°31'0 0.0
2017-Jan-18 14:33N 45°11' E 036°31'0 0.0
2017-Jan-18 13:33N 45°11' E 036°31'0 0.0
2017-Jan-18 12:33N 45°11' E 036°31'0 0.0
2017-Jan-18 11:33N 45°11' E 036°31'0 0.0
2017-Jan-18 10:33N 45°11' E 036°31'0 0.0
2017-Jan-18 09:33N 45°11' E 036°31'0 0.0
2017-Jan-18 08:33N 45°11' E 036°31'0 0.0
2017-Jan-18 07:34N 45°11' E 036°31'0 0.0
2017-Jan-18 06:34N 45°11' E 036°31'0 0.0
2017-Jan-18 05:33N 45°11' E 036°31'0 0.0
2017-Jan-18 04:32N 45°11' E 036°31'0 0.0
2017-Jan-18 03:33N 45°11' E 036°31'0 0.0
2017-Jan-18 02:33N 45°11' E 036°31'0 0.0
2017-Jan-18 01:32N 45°11' E 036°31'0 0.0
2017-Jan-18 00:33N 45°11' E 036°31'0 0.0
2017-Jan-17 23:33N 45°11' E 036°31'0 0.0
2017-Jan-17 22:33N 45°11' E 036°31'0 0.0
2017-Jan-17 21:34N 45°11' E 036°31'0 0.0
2017-Jan-17 20:33N 45°11' E 036°31'0 0.0
2017-Jan-17 19:34N 45°11' E 036°31'0 0.0
2017-Jan-17 18:33N 45°11' E 036°31'0 0.0
2017-Jan-17 17:33N 45°11' E 036°31'0 0.0
2017-Jan-17 16:34N 45°11' E 036°31'0 0.0
2017-Jan-17 15:33N 45°11' E 036°31'0 0.0
2017-Jan-17 14:33N 45°11' E 036°31'0 0.0
2017-Jan-17 13:33N 45°11' E 036°31'0 0.0
2017-Jan-17 12:33N 45°11' E 036°31'0 0.0
2017-Jan-17 11:33N 45°11' E 036°31'0 0.0
2017-Jan-17 10:34N 45°11' E 036°31'1 1.2
2017-Jan-17 09:33N 45°10' E 036°32'3 2.8
2017-Jan-17 08:31N 45°07' E 036°34'0 0.0
2017-Jan-17 07:31N 45°07' E 036°34'0 0.0
2017-Jan-17 06:31N 45°07' E 036°34'0 0.0
2017-Jan-17 05:22N 45°07' E 036°34'0 0.0
2017-Jan-17 04:31N 45°07' E 036°34'0 0.0
2017-Jan-17 03:31N 45°07' E 036°34'0 0.0
2017-Jan-17 02:29N 45°07' E 036°34'0 0.0
2017-Jan-17 01:14N 45°07' E 036°34'0 0.1
2017-Jan-17 00:33N 45°07' E 036°35'0 0.0
2017-Jan-16 23:28N 45°07' E 036°35'0 0.0
2017-Jan-16 22:31N 45°07' E 036°35'0 0.0
2017-Jan-16 21:31N 45°07' E 036°35'0 0.0
2017-Jan-16 20:31N 45°07' E 036°35'0 0.0
2017-Jan-16 19:31N 45°07' E 036°35'0 0.0
2017-Jan-16 18:25N 45°07' E 036°35'0 0.0
2017-Jan-16 17:28N 45°07' E 036°35'0 0.0
2017-Jan-16 16:31N 45°07' E 036°35'0 0.0
2017-Jan-16 15:22N 45°07' E 036°35'0 0.0
2017-Jan-16 14:07N 45°07' E 036°35'0 0.0
2017-Jan-16 13:22N 45°07' E 036°35'0 0.0
2017-Jan-16 12:22N 45°07' E 036°35'0 0.0
2017-Jan-15 22:13N 45°07' E 036°35'0 0.1
2017-Jan-15 18:27N 45°08' E 036°35'0 0.0
2017-Jan-15 17:33N 45°08' E 036°35'0 0.0
2017-Jan-15 16:33N 45°08' E 036°35'0 0.0
2017-Jan-15 15:15N 45°08' E 036°35'0 0.0
2017-Jan-15 14:33N 45°08' E 036°35'1 0.2
2017-Jan-15 12:25N 45°08' E 036°35'0 0.0
2017-Jan-15 11:25N 45°08' E 036°35'0 0.4
2017-Jan-15 10:33N 45°08' E 036°35'7 6.6
2017-Jan-15 09:34N 45°12' E 036°28'4 4.4
2017-Jan-15 08:34N 45°17' E 036°29'8 7.8
2017-Jan-15 07:34N 45°21' E 036°38'7 6.8
2017-Jan-15 06:34N 45°28' E 036°38'1 0.6
2017-Jan-15 05:32N 45°28' E 036°37'0 0.0
2017-Jan-15 04:32N 45°28' E 036°37'0 0.0
2017-Jan-15 03:29N 45°28' E 036°37'0 0.0
2017-Jan-15 02:32N 45°28' E 036°37'0 0.0
2017-Jan-15 01:32N 45°28' E 036°37'0 0.0
2017-Jan-14 23:28N 45°28' E 036°37'0 0.0
2017-Jan-14 22:07N 45°28' E 036°37'0 0.0
2017-Jan-14 21:25N 45°28' E 036°37'0 0.0
2017-Jan-14 20:22N 45°28' E 036°37'0 0.0
2017-Jan-14 19:19N 45°28' E 036°37'0 0.0
2017-Jan-14 18:33N 45°28' E 036°37'0 0.0
2017-Jan-14 15:14N 45°28' E 036°37'0 0.0
2017-Jan-14 14:23N 45°28' E 036°37'0 0.0
2017-Jan-14 13:31N 45°28' E 036°37'0 0.0
2017-Jan-14 12:31N 45°28' E 036°37'0 0.0
2017-Jan-14 11:31N 45°28' E 036°37'0 0.0
2017-Jan-14 10:31N 45°28' E 036°37'0 0.0
2017-Jan-14 09:31N 45°28' E 036°37'0 0.0
2017-Jan-14 08:31N 45°28' E 036°37'0 0.0
2017-Jan-14 06:31N 45°28' E 036°37'0 0.0
2017-Jan-14 05:31N 45°28' E 036°37'0 0.0
2017-Jan-14 04:31N 45°28' E 036°37'0 0.0
2017-Jan-14 03:28N 45°28' E 036°37'0 0.0
2017-Jan-13 23:22N 45°28' E 036°37'0 0.0
2017-Jan-13 22:10N 45°28' E 036°37'0 0.0
2017-Jan-13 21:31N 45°28' E 036°37'0 0.0
2017-Jan-13 19:07N 45°28' E 036°37'0 0.0
2017-Jan-13 18:31N 45°28' E 036°37'0 0.0
2017-Jan-13 17:32N 45°28' E 036°37'0 0.0
2017-Jan-13 16:32N 45°28' E 036°37'0 0.0
2017-Jan-13 15:32N 45°28' E 036°37'0 0.1
2017-Jan-13 14:32N 45°28' E 036°37'0 0.0
2017-Jan-13 13:32N 45°28' E 036°37'0 0.0
2017-Jan-13 12:31N 45°28' E 036°37'0 0.0
2017-Jan-13 11:31N 45°28' E 036°37'0 0.0
2017-Jan-13 10:31N 45°28' E 036°37'0 0.0
2017-Jan-13 09:32N 45°28' E 036°37'0 0.0
2017-Jan-13 08:32N 45°28' E 036°37'0 0.0
2017-Jan-13 07:29N 45°28' E 036°37'0 0.0
2017-Jan-13 06:29N 45°28' E 036°37'0 0.0
2017-Jan-13 05:31N 45°28' E 036°37'0 0.0
2017-Jan-13 04:31N 45°28' E 036°37'0 0.0
2017-Jan-13 03:31N 45°28' E 036°37'0 0.0
2017-Jan-13 02:31N 45°28' E 036°37'0 0.0
2017-Jan-13 01:31N 45°28' E 036°37'0 0.0
2017-Jan-13 00:31N 45°28' E 036°37'0 0.0
2017-Jan-12 23:29N 45°28' E 036°37'0 0.0
2017-Jan-12 22:32N 45°28' E 036°37'0 0.0
2017-Jan-12 21:32N 45°28' E 036°37'0 0.0
2017-Jan-12 20:32N 45°28' E 036°37'0 0.0
2017-Jan-12 19:32N 45°28' E 036°37'0 0.0
2017-Jan-12 18:32N 45°28' E 036°37'0 0.0
2017-Jan-12 17:32N 45°28' E 036°37'0 0.0
2017-Jan-12 16:32N 45°28' E 036°37'0 0.0
2017-Jan-12 15:32N 45°28' E 036°37'0 0.0
2017-Jan-12 14:26N 45°28' E 036°37'0 0.1
2017-Jan-12 13:33N 45°28' E 036°37'0 0.1
2017-Jan-12 12:33N 45°28' E 036°37'0 0.0
2017-Jan-12 11:33N 45°28' E 036°37'0 0.0
2017-Jan-12 10:33N 45°28' E 036°37'0 0.0
2017-Jan-12 09:30N 45°28' E 036°37'0 0.0
2017-Jan-12 08:30N 45°28' E 036°37'0 0.0
2017-Jan-12 07:33N 45°28' E 036°37'0 0.0
2017-Jan-12 06:33N 45°28' E 036°37'0 0.0
2017-Jan-12 05:33N 45°28' E 036°37'0 0.0
2017-Jan-12 04:26N 45°28' E 036°37'0 0.0
2017-Jan-12 03:32N 45°28' E 036°37'0 0.0
2017-Jan-12 01:20N 45°28' E 036°37'0 0.0
2017-Jan-12 00:14N 45°28' E 036°37'0 0.0
2017-Jan-11 23:32N 45°28' E 036°37'0 0.0
2017-Jan-11 22:29N 45°28' E 036°37'0 0.0
2017-Jan-11 21:17N 45°28' E 036°37'0 0.0
2017-Jan-11 20:32N 45°28' E 036°37'0 0.0
2017-Jan-11 19:31N 45°28' E 036°37'0 0.0
2017-Jan-11 17:31N 45°28' E 036°37'0 0.1
2017-Jan-11 16:31N 45°28' E 036°37'0 0.1
2017-Jan-11 15:28N 45°28' E 036°37'0 0.0
2017-Jan-11 14:33N 45°28' E 036°37'0 0.0
2017-Jan-11 13:33N 45°28' E 036°37'0 0.0
2017-Jan-11 12:28N 45°28' E 036°37'0 0.1
2017-Jan-11 10:28N 45°28' E 036°37'0 0.0
2017-Jan-11 09:28N 45°28' E 036°37'0 0.0
2017-Jan-11 08:31N 45°28' E 036°37'0 0.0
2017-Jan-11 07:31N 45°28' E 036°37'0 0.0
2017-Jan-11 06:28N 45°28' E 036°37'0 0.0
2017-Jan-11 05:25N 45°28' E 036°37'0 0.0
2017-Jan-11 04:31N 45°28' E 036°37'0 0.0
2017-Jan-11 03:28N 45°28' E 036°37'0 0.0
2017-Jan-10 21:19N 45°28' E 036°37'0 0.0
2017-Jan-10 17:12N 45°28' E 036°37'0 0.0
2017-Jan-10 16:33N 45°28' E 036°37'0 0.0
2017-Jan-10 14:31N 45°28' E 036°37'0 0.0
2017-Jan-10 13:31N 45°28' E 036°37'0 0.0
2017-Jan-10 12:31N 45°28' E 036°37'0 0.0
2017-Jan-10 11:31N 45°28' E 036°37'0 0.0
2017-Jan-10 10:31N 45°28' E 036°37'0 0.0
2017-Jan-10 09:31N 45°28' E 036°37'0 0.0
2017-Jan-10 08:31N 45°28' E 036°37'0 0.0
2017-Jan-10 07:31N 45°28' E 036°37'0 0.0
2017-Jan-10 06:31N 45°28' E 036°37'0 0.0
2017-Jan-10 05:31N 45°28' E 036°37'0 0.0
2017-Jan-10 04:31N 45°28' E 036°37'0 0.0
2017-Jan-10 03:31N 45°28' E 036°37'0 0.0
2017-Jan-10 02:31N 45°28' E 036°37'0 0.0
2017-Jan-10 01:31N 45°28' E 036°37'0 0.0
2017-Jan-10 00:31N 45°28' E 036°37'0 0.0
2017-Jan-09 23:28N 45°28' E 036°37'0 0.0
2017-Jan-09 22:28N 45°28' E 036°37'0 0.0
2017-Jan-09 21:31N 45°28' E 036°37'  
Track history (hours):
 
Tides and Currents Weather Stations Pressure Air Temp Water Temp Dewpoint Dewpoint Depression Visibility Wind Speed Wind Dir Waves Ship Positions

Sv.knyaz Vladimir

Last reported at 2017-Jan-19 21:21 UTC. Time now 2017-Jan-22 01:35 UTC.
Position N 45°33' E 036°49'.

Length 128 m; draft 3.2 m.

Type: Cargo ship. MMSI: 273350360.

Date/timePositionNaut miles runAvg speedWind from/ knotsBaromVisibWave heightAir tempDewpointWater temp
2017-Jan-19 21:21N 45°33' E 036°49'6 7.7
2017-Jan-19 20:34N 45°27' E 036°44'7 7.3
2017-Jan-19 19:34N 45°21' E 036°39'7 7.2
2017-Jan-19 18:33N 45°18' E 036°30'5 5.4
2017-Jan-19 17:33N 45°13' E 036°29'3 2.6
2017-Jan-19 16:33N 45°11' E 036°31'0 0.0
2017-Jan-19 15:30N 45°11' E 036°31'0 0.0
2017-Jan-19 14:34N 45°11' E 036°31'0 0.0
2017-Jan-19 13:33N 45°11' E 036°31'0 0.0
2017-Jan-19 12:34N 45°11' E 036°31'0 0.0
2017-Jan-19 11:31N 45°11' E 036°31'0 0.0
2017-Jan-19 10:33N 45°11' E 036°31'0 0.0
2017-Jan-19 09:33N 45°11' E 036°31'0 0.0
2017-Jan-19 08:34N 45°11' E 036°31'0 0.0
2017-Jan-19 07:28N 45°11' E 036°31'0 0.0
2017-Jan-19 06:34N 45°11' E 036°31'0 0.0
2017-Jan-19 05:33N 45°11' E 036°31'0 0.0
2017-Jan-19 04:32N 45°11' E 036°31'0 0.0
2017-Jan-19 03:31N 45°11' E 036°31'0 0.0
2017-Jan-19 02:33N 45°11' E 036°31'0 0.0
2017-Jan-19 01:32N 45°11' E 036°31'0 0.0
2017-Jan-19 00:09N 45°11' E 036°31'0 0.0
2017-Jan-18 19:05N 45°11' E 036°31'0 0.0
2017-Jan-18 18:28N 45°11' E 036°31'0 0.0
2017-Jan-18 17:33N 45°11' E 036°31'0 0.0
2017-Jan-18 16:30N 45°11' E 036°31'0 0.0
2017-Jan-18 15:33N 45°11' E 036°31'0 0.0
2017-Jan-18 14:33N 45°11' E 036°31'0 0.0
2017-Jan-18 13:33N 45°11' E 036°31'0 0.0
2017-Jan-18 12:33N 45°11' E 036°31'0 0.0
2017-Jan-18 11:33N 45°11' E 036°31'0 0.0
2017-Jan-18 10:33N 45°11' E 036°31'0 0.0
2017-Jan-18 09:33N 45°11' E 036°31'0 0.0
2017-Jan-18 08:33N 45°11' E 036°31'0 0.0
2017-Jan-18 07:34N 45°11' E 036°31'0 0.0
2017-Jan-18 06:34N 45°11' E 036°31'0 0.0
2017-Jan-18 05:33N 45°11' E 036°31'0 0.0
2017-Jan-18 04:32N 45°11' E 036°31'0 0.0
2017-Jan-18 03:33N 45°11' E 036°31'0 0.0
2017-Jan-18 02:33N 45°11' E 036°31'0 0.0
2017-Jan-18 01:32N 45°11' E 036°31'0 0.0
2017-Jan-18 00:33N 45°11' E 036°31'0 0.0
2017-Jan-17 23:33N 45°11' E 036°31'0 0.0
2017-Jan-17 22:33N 45°11' E 036°31'0 0.0
2017-Jan-17 21:34N 45°11' E 036°31'0 0.0
2017-Jan-17 20:33N 45°11' E 036°31'0 0.0
2017-Jan-17 19:34N 45°11' E 036°31'0 0.0
2017-Jan-17 18:33N 45°11' E 036°31'0 0.0
2017-Jan-17 17:33N 45°11' E 036°31'0 0.0
2017-Jan-17 16:34N 45°11' E 036°31'0 0.0
2017-Jan-17 15:33N 45°11' E 036°31'0 0.0
2017-Jan-17 14:33N 45°11' E 036°31'0 0.0
2017-Jan-17 13:33N 45°11' E 036°31'0 0.0
2017-Jan-17 12:33N 45°11' E 036°31'0 0.0
2017-Jan-17 11:33N 45°11' E 036°31'0 0.0
2017-Jan-17 10:34N 45°11' E 036°31'1 1.2
2017-Jan-17 09:33N 45°10' E 036°32'3 2.8
2017-Jan-17 08:31N 45°07' E 036°34'0 0.0
2017-Jan-17 07:31N 45°07' E 036°34'0 0.0
2017-Jan-17 06:31N 45°07' E 036°34'0 0.0
2017-Jan-17 05:22N 45°07' E 036°34'0 0.0
2017-Jan-17 04:31N 45°07' E 036°34'0 0.0
2017-Jan-17 03:31N 45°07' E 036°34'0 0.0
2017-Jan-17 02:29N 45°07' E 036°34'0 0.0
2017-Jan-17 01:14N 45°07' E 036°34'0 0.1
2017-Jan-17 00:33N 45°07' E 036°35'0 0.0
2017-Jan-16 23:28N 45°07' E 036°35'0 0.0
2017-Jan-16 22:31N 45°07' E 036°35'0 0.0
2017-Jan-16 21:31N 45°07' E 036°35'0 0.0
2017-Jan-16 20:31N 45°07' E 036°35'0 0.0
2017-Jan-16 19:31N 45°07' E 036°35'0 0.0
2017-Jan-16 18:25N 45°07' E 036°35'0 0.0
2017-Jan-16 17:28N 45°07' E 036°35'0 0.0
2017-Jan-16 16:31N 45°07' E 036°35'0 0.0
2017-Jan-16 15:22N 45°07' E 036°35'0 0.0
2017-Jan-16 14:07N 45°07' E 036°35'0 0.0
2017-Jan-16 13:22N 45°07' E 036°35'0 0.0
2017-Jan-16 12:22N 45°07' E 036°35'0 0.0
2017-Jan-15 22:13N 45°07' E 036°35'0 0.1
2017-Jan-15 18:27N 45°08' E 036°35'0 0.0
2017-Jan-15 17:33N 45°08' E 036°35'0 0.0
2017-Jan-15 16:33N 45°08' E 036°35'0 0.0
2017-Jan-15 15:15N 45°08' E 036°35'0 0.0
2017-Jan-15 14:33N 45°08' E 036°35'1 0.2
2017-Jan-15 12:25N 45°08' E 036°35'0 0.0
2017-Jan-15 11:25N 45°08' E 036°35'0 0.4
2017-Jan-15 10:33N 45°08' E 036°35'7 6.6
2017-Jan-15 09:34N 45°12' E 036°28'4 4.4
2017-Jan-15 08:34N 45°17' E 036°29'8 7.8
2017-Jan-15 07:34N 45°21' E 036°38'7 6.8
2017-Jan-15 06:34N 45°28' E 036°38'1 0.6
2017-Jan-15 05:32N 45°28' E 036°37'0 0.0
2017-Jan-15 04:32N 45°28' E 036°37'0 0.0
2017-Jan-15 03:29N 45°28' E 036°37'0 0.0
2017-Jan-15 02:32N 45°28' E 036°37'0 0.0
2017-Jan-15 01:32N 45°28' E 036°37'0 0.0
2017-Jan-14 23:28N 45°28' E 036°37'0 0.0
2017-Jan-14 22:07N 45°28' E 036°37'0 0.0
2017-Jan-14 21:25N 45°28' E 036°37'0 0.0
2017-Jan-14 20:22N 45°28' E 036°37'0 0.0
2017-Jan-14 19:19N 45°28' E 036°37'0 0.0
2017-Jan-14 18:33N 45°28' E 036°37'0 0.0
2017-Jan-14 15:14N 45°28' E 036°37'0 0.0
2017-Jan-14 14:23N 45°28' E 036°37'0 0.0
2017-Jan-14 13:31N 45°28' E 036°37'0 0.0
2017-Jan-14 12:31N 45°28' E 036°37'0 0.0
2017-Jan-14 11:31N 45°28' E 036°37'0 0.0
2017-Jan-14 10:31N 45°28' E 036°37'0 0.0
2017-Jan-14 09:31N 45°28' E 036°37'0 0.0
2017-Jan-14 08:31N 45°28' E 036°37'0 0.0
2017-Jan-14 06:31N 45°28' E 036°37'0 0.0
2017-Jan-14 05:31N 45°28' E 036°37'0 0.0
2017-Jan-14 04:31N 45°28' E 036°37'0 0.0
2017-Jan-14 03:28N 45°28' E 036°37'0 0.0
2017-Jan-13 23:22N 45°28' E 036°37'0 0.0
2017-Jan-13 22:10N 45°28' E 036°37'0 0.0
2017-Jan-13 21:31N 45°28' E 036°37'0 0.0
2017-Jan-13 19:07N 45°28' E 036°37'0 0.0
2017-Jan-13 18:31N 45°28' E 036°37'0 0.0
2017-Jan-13 17:32N 45°28' E 036°37'0 0.0
2017-Jan-13 16:32N 45°28' E 036°37'0 0.0
2017-Jan-13 15:32N 45°28' E 036°37'0 0.1
2017-Jan-13 14:32N 45°28' E 036°37'0 0.0
2017-Jan-13 13:32N 45°28' E 036°37'0 0.0
2017-Jan-13 12:31N 45°28' E 036°37'0 0.0
2017-Jan-13 11:31N 45°28' E 036°37'0 0.0
2017-Jan-13 10:31N 45°28' E 036°37'0 0.0
2017-Jan-13 09:32N 45°28' E 036°37'0 0.0
2017-Jan-13 08:32N 45°28' E 036°37'0 0.0
2017-Jan-13 07:29N 45°28' E 036°37'0 0.0
2017-Jan-13 06:29N 45°28' E 036°37'0 0.0
2017-Jan-13 05:31N 45°28' E 036°37'0 0.0
2017-Jan-13 04:31N 45°28' E 036°37'0 0.0
2017-Jan-13 03:31N 45°28' E 036°37'0 0.0
2017-Jan-13 02:31N 45°28' E 036°37'0 0.0
2017-Jan-13 01:31N 45°28' E 036°37'0 0.0
2017-Jan-13 00:31N 45°28' E 036°37'0 0.0
2017-Jan-12 23:29N 45°28' E 036°37'0 0.0
2017-Jan-12 22:32N 45°28' E 036°37'0 0.0
2017-Jan-12 21:32N 45°28' E 036°37'0 0.0
2017-Jan-12 20:32N 45°28' E 036°37'0 0.0
2017-Jan-12 19:32N 45°28' E 036°37'0 0.0
2017-Jan-12 18:32N 45°28' E 036°37'0 0.0
2017-Jan-12 17:32N 45°28' E 036°37'0 0.0
2017-Jan-12 16:32N 45°28' E 036°37'0 0.0
2017-Jan-12 15:32N 45°28' E 036°37'0 0.0
2017-Jan-12 14:26N 45°28' E 036°37'0 0.1
2017-Jan-12 13:33N 45°28' E 036°37'0 0.1
2017-Jan-12 12:33N 45°28' E 036°37'0 0.0
2017-Jan-12 11:33N 45°28' E 036°37'0 0.0
2017-Jan-12 10:33N 45°28' E 036°37'0 0.0
2017-Jan-12 09:30N 45°28' E 036°37'0 0.0
2017-Jan-12 08:30N 45°28' E 036°37'0 0.0
2017-Jan-12 07:33N 45°28' E 036°37'0 0.0
2017-Jan-12 06:33N 45°28' E 036°37'0 0.0
2017-Jan-12 05:33N 45°28' E 036°37'0 0.0
2017-Jan-12 04:26N 45°28' E 036°37'0 0.0
2017-Jan-12 03:32N 45°28' E 036°37'0 0.0
2017-Jan-12 01:20N 45°28' E 036°37'0 0.0
2017-Jan-12 00:14N 45°28' E 036°37'0 0.0
2017-Jan-11 23:32N 45°28' E 036°37'0 0.0
2017-Jan-11 22:29N 45°28' E 036°37'0 0.0
2017-Jan-11 21:17N 45°28' E 036°37'0 0.0
2017-Jan-11 20:32N 45°28' E 036°37'0 0.0
2017-Jan-11 19:31N 45°28' E 036°37'0 0.0
2017-Jan-11 17:31N 45°28' E 036°37'0 0.1
2017-Jan-11 16:31N 45°28' E 036°37'0 0.1
2017-Jan-11 15:28N 45°28' E 036°37'0 0.0
2017-Jan-11 14:33N 45°28' E 036°37'0 0.0
2017-Jan-11 13:33N 45°28' E 036°37'0 0.0
2017-Jan-11 12:28N 45°28' E 036°37'0 0.1
2017-Jan-11 10:28N 45°28' E 036°37'0 0.0
2017-Jan-11 09:28N 45°28' E 036°37'0 0.0
2017-Jan-11 08:31N 45°28' E 036°37'0 0.0
2017-Jan-11 07:31N 45°28' E 036°37'0 0.0
2017-Jan-11 06:28N 45°28' E 036°37'0 0.0
2017-Jan-11 05:25N 45°28' E 036°37'0 0.0
2017-Jan-11 04:31N 45°28' E 036°37'0 0.0
2017-Jan-11 03:28N 45°28' E 036°37'0 0.0
2017-Jan-10 21:19N 45°28' E 036°37'0 0.0
2017-Jan-10 17:12N 45°28' E 036°37'0 0.0
2017-Jan-10 16:33N 45°28' E 036°37'0 0.0
2017-Jan-10 14:31N 45°28' E 036°37'0 0.0
2017-Jan-10 13:31N 45°28' E 036°37'0 0.0
2017-Jan-10 12:31N 45°28' E 036°37'0 0.0
2017-Jan-10 11:31N 45°28' E 036°37'0 0.0
2017-Jan-10 10:31N 45°28' E 036°37'0 0.0
2017-Jan-10 09:31N 45°28' E 036°37'0 0.0
2017-Jan-10 08:31N 45°28' E 036°37'0 0.0
2017-Jan-10 07:31N 45°28' E 036°37'0 0.0
2017-Jan-10 06:31N 45°28' E 036°37'0 0.0
2017-Jan-10 05:31N 45°28' E 036°37'0 0.0
2017-Jan-10 04:31N 45°28' E 036°37'0 0.0
2017-Jan-10 03:31N 45°28' E 036°37'0 0.0
2017-Jan-10 02:31N 45°28' E 036°37'0 0.0
2017-Jan-10 01:31N 45°28' E 036°37'0 0.0
2017-Jan-10 00:31N 45°28' E 036°37'0 0.0
2017-Jan-09 23:28N 45°28' E 036°37'0 0.0
2017-Jan-09 22:28N 45°28' E 036°37'0 0.0
2017-Jan-09 21:31N 45°28' E 036°37'  

Dump ship's entire track history